createdAt,value
2023-02-18T00:00:23.650Z,5.60
2023-02-18T00:02:52.557Z,6.53
2023-02-18T00:05:19.556Z,4.77
2023-02-18T00:07:46.077Z,6.47
2023-02-18T00:10:14.649Z,4.83
2023-02-18T00:12:41.520Z,5.47
2023-02-18T00:15:09.599Z,4.90
2023-02-18T00:17:36.613Z,5.33
2023-02-18T00:20:04.425Z,6.40
2023-02-18T00:22:31.169Z,4.27
2023-02-18T00:24:57.618Z,5.47
2023-02-18T00:27:24.610Z,7.80
2023-02-18T00:29:51.138Z,4.00
2023-02-18T00:32:17.780Z,6.80
2023-02-18T00:34:46.118Z,8.13
2023-02-18T00:37:13.427Z,5.63
2023-02-18T00:39:40.003Z,7.63
2023-02-18T00:42:06.825Z,6.30
2023-02-18T00:44:33.289Z,4.33
2023-02-18T00:46:59.873Z,4.60
2023-02-18T00:49:26.776Z,4.97
2023-02-18T00:51:53.767Z,6.73
2023-02-18T00:54:20.516Z,6.90
2023-02-18T00:56:47.161Z,5.37
2023-02-18T00:59:13.580Z,7.43
2023-02-18T01:01:40.371Z,7.97
2023-02-18T01:04:06.841Z,5.67
2023-02-18T01:06:33.700Z,5.97
2023-02-18T01:09:00.184Z,4.57
2023-02-18T01:11:26.755Z,3.83
2023-02-18T01:13:53.410Z,6.47
2023-02-18T01:16:20.095Z,8.00
2023-02-18T01:18:46.632Z,3.93
2023-02-18T01:21:13.515Z,8.70
2023-02-18T01:23:41.805Z,5.23
2023-02-18T01:26:09.716Z,6.97
2023-02-18T01:28:36.563Z,4.17
2023-02-18T01:31:11.320Z,4.67
2023-02-18T01:33:38.168Z,5.13
2023-02-18T01:36:05.686Z,4.90
2023-02-18T01:38:32.268Z,6.10
2023-02-18T01:40:58.994Z,5.37
2023-02-18T01:43:25.526Z,6.97
2023-02-18T01:45:59.830Z,5.17
2023-02-18T01:48:32.929Z,8.70
2023-02-18T01:51:16.259Z,6.00
2023-02-18T01:54:07.698Z,5.97
2023-02-18T01:56:47.177Z,6.40
2023-02-18T01:59:17.641Z,5.87
2023-02-18T02:01:44.920Z,6.43
2023-02-18T02:04:12.063Z,5.47
2023-02-18T02:06:38.692Z,10.70
2023-02-18T02:09:06.988Z,6.30
2023-02-18T02:11:56.772Z,6.07
2023-02-18T02:14:51.982Z,5.03
2023-02-18T02:17:33.058Z,3.97
2023-02-18T02:20:33.145Z,7.70
2023-02-18T02:23:26.361Z,4.23
2023-02-18T02:26:15.689Z,7.83
2023-02-18T02:29:05.388Z,10.00
2023-02-18T02:31:50.786Z,10.27
2023-02-18T02:34:32.734Z,9.17
2023-02-18T02:37:34.464Z,5.53
2023-02-18T02:40:27.417Z,4.57
2023-02-18T02:43:06.277Z,7.07
2023-02-18T02:45:55.929Z,8.83
2023-02-18T02:48:35.089Z,5.47
2023-02-18T02:51:23.333Z,7.67
2023-02-18T02:53:49.871Z,7.70
2023-02-18T02:56:19.231Z,7.30
2023-02-18T02:58:51.760Z,8.10
2023-02-18T03:01:49.598Z,7.33
2023-02-18T03:04:22.333Z,11.07
2023-02-18T03:07:07.996Z,7.30
2023-02-18T03:09:59.324Z,6.87
2023-02-18T03:12:32.942Z,10.37
2023-02-18T03:15:23.275Z,6.67
2023-02-18T03:18:05.247Z,5.53
2023-02-18T03:20:35.683Z,6.10
2023-02-18T03:23:11.364Z,6.43
2023-02-18T03:25:38.710Z,6.70
2023-02-18T03:28:08.629Z,9.10
2023-02-18T03:30:41.965Z,8.13
2023-02-18T03:33:10.231Z,4.63
2023-02-18T03:35:37.737Z,6.17
2023-02-18T03:38:16.940Z,8.23
2023-02-18T03:40:43.590Z,6.47
2023-02-18T03:43:10.074Z,5.93
2023-02-18T03:45:36.761Z,6.20
2023-02-18T03:48:03.408Z,8.77
2023-02-18T03:50:29.903Z,6.93
2023-02-18T03:52:56.389Z,9.17
2023-02-18T03:55:22.833Z,6.13
2023-02-18T03:57:49.520Z,8.37
2023-02-18T04:00:16.167Z,6.77
2023-02-18T04:02:42.793Z,6.27
2023-02-18T04:05:09.649Z,7.53
2023-02-18T04:07:36.360Z,8.50
2023-02-18T04:10:04.075Z,8.53
2023-02-18T04:12:30.501Z,8.60
2023-02-18T04:14:57.000Z,8.60
2023-02-18T04:17:23.514Z,5.97
2023-02-18T04:19:49.943Z,7.63
2023-02-18T04:22:16.484Z,7.70
2023-02-18T04:24:43.053Z,7.37
2023-02-18T04:27:09.506Z,7.93
2023-02-18T04:29:36.096Z,8.90
2023-02-18T04:32:02.769Z,6.97
2023-02-18T04:34:29.354Z,7.63
2023-02-18T04:36:56.187Z,10.73
2023-02-18T04:39:22.949Z,8.40
2023-02-18T04:41:49.452Z,9.13
2023-02-18T04:44:16.091Z,7.37
2023-02-18T04:46:42.551Z,11.70
2023-02-18T04:49:09.060Z,10.63
2023-02-18T04:51:37.618Z,8.90
2023-02-18T04:54:04.751Z,8.87
2023-02-18T04:56:31.217Z,9.37
2023-02-18T04:58:57.792Z,9.00
2023-02-18T05:01:24.300Z,9.73
2023-02-18T05:03:50.769Z,10.00
2023-02-18T05:06:17.292Z,8.63
2023-02-18T05:08:43.776Z,12.80
2023-02-18T05:11:10.599Z,13.73
2023-02-18T05:13:37.012Z,14.73
2023-02-18T05:16:03.714Z,7.97
2023-02-18T05:18:30.192Z,11.20
2023-02-18T05:20:56.749Z,14.20
2023-02-18T05:23:23.219Z,8.43
2023-02-18T05:25:49.710Z,10.90
2023-02-18T05:28:16.907Z,12.50
2023-02-18T05:30:43.453Z,9.90
2023-02-18T05:33:09.957Z,10.50
2023-02-18T05:35:36.396Z,9.63
2023-02-18T05:38:02.936Z,10.33
2023-02-18T05:40:29.409Z,9.87
2023-02-18T05:42:55.847Z,10.07
2023-02-18T05:45:22.289Z,12.97
2023-02-18T05:47:48.949Z,11.37
2023-02-18T05:50:15.425Z,9.60
2023-02-18T05:52:41.845Z,9.27
2023-02-18T05:55:08.301Z,12.03
2023-02-18T05:57:34.729Z,11.60
2023-02-18T06:00:01.320Z,13.37
2023-02-18T06:02:27.739Z,12.83
2023-02-18T06:04:54.341Z,10.90
2023-02-18T06:07:20.803Z,13.27
2023-02-18T06:09:47.308Z,18.53
2023-02-18T06:12:13.878Z,18.53
2023-02-18T06:14:43.136Z,14.40
2023-02-18T06:17:10.350Z,22.13
2023-02-18T06:19:36.896Z,16.60
2023-02-18T06:22:03.796Z,18.70
2023-02-18T06:24:30.466Z,17.50
2023-02-18T06:26:57.137Z,17.57
2023-02-18T06:29:23.696Z,20.33
2023-02-18T06:31:50.314Z,23.13
2023-02-18T06:34:17.107Z,15.40
2023-02-18T06:36:43.560Z,19.97
2023-02-18T06:39:09.968Z,20.83
2023-02-18T06:41:36.495Z,23.33
2023-02-18T06:44:02.993Z,22.00
2023-02-18T06:46:29.626Z,26.87
2023-02-18T06:48:56.175Z,25.63
2023-02-18T06:51:23.500Z,28.37
2023-02-18T06:53:49.988Z,26.40
2023-02-18T06:56:16.601Z,30.57
2023-02-18T06:58:43.085Z,30.60
2023-02-18T07:01:09.635Z,28.23
2023-02-18T07:03:36.165Z,32.13
2023-02-18T07:06:02.738Z,30.57
2023-02-18T07:08:30.897Z,33.17
2023-02-18T07:10:57.409Z,32.17
2023-02-18T07:13:23.983Z,37.07
2023-02-18T07:15:50.410Z,34.50
2023-02-18T07:18:17.521Z,32.63
2023-02-18T07:20:43.953Z,38.83
2023-02-18T07:23:11.288Z,43.90
2023-02-18T07:25:37.824Z,32.93
2023-02-18T07:28:04.624Z,37.83
2023-02-18T07:30:31.313Z,38.50
2023-02-18T07:32:57.811Z,37.57
2023-02-18T07:35:24.316Z,29.53
2023-02-18T07:37:51.222Z,37.97
2023-02-18T07:40:20.417Z,31.00
2023-02-18T07:42:47.483Z,33.23
2023-02-18T07:45:14.661Z,44.23
2023-02-18T07:47:42.178Z,42.43
2023-02-18T07:50:09.427Z,44.73
2023-02-18T07:52:35.880Z,43.63
2023-02-18T07:55:02.450Z,40.87
2023-02-18T07:57:29.280Z,41.90
2023-02-18T07:59:55.769Z,39.33
2023-02-18T08:02:24.326Z,38.27
2023-02-18T08:04:51.057Z,36.07
2023-02-18T08:07:19.457Z,29.97
2023-02-18T08:09:45.971Z,32.93
2023-02-18T08:12:12.432Z,30.33
2023-02-18T08:14:38.942Z,30.97
2023-02-18T08:17:05.417Z,35.70
2023-02-18T08:19:31.872Z,31.60
2023-02-18T08:22:02.025Z,30.67
2023-02-18T08:24:28.514Z,31.80
2023-02-18T08:27:00.824Z,35.83
2023-02-18T08:29:27.879Z,34.77
2023-02-18T08:31:55.197Z,28.80
2023-02-18T08:34:21.721Z,81.23
2023-02-18T08:36:48.101Z,48.77
2023-02-18T08:39:14.555Z,48.60
2023-02-18T08:41:41.025Z,35.80
2023-02-18T08:44:07.497Z,42.97
2023-02-18T08:46:36.030Z,37.27
2023-02-18T08:49:04.381Z,45.40
2023-02-18T08:51:31.565Z,36.80
2023-02-18T08:53:58.460Z,35.27
2023-02-18T08:56:27.005Z,47.23
2023-02-18T08:58:53.523Z,37.20
2023-02-18T09:01:20.934Z,34.97
2023-02-18T09:03:48.361Z,40.20
2023-02-18T09:06:14.898Z,34.70
2023-02-18T09:08:41.355Z,31.93
2023-02-18T09:11:08.248Z,39.80
2023-02-18T09:13:35.185Z,40.93
2023-02-18T09:16:04.600Z,37.47
2023-02-18T09:18:32.884Z,32.83
2023-02-18T09:21:00.607Z,39.10
2023-02-18T09:23:28.819Z,46.87
2023-02-18T09:25:55.396Z,38.07
2023-02-18T09:28:22.077Z,33.93
2023-02-18T09:30:48.637Z,35.30
2023-02-18T09:33:15.800Z,37.30
2023-02-18T09:35:43.905Z,38.13
2023-02-18T09:38:11.728Z,38.57
2023-02-18T09:40:42.655Z,44.53
2023-02-18T09:43:32.436Z,43.03
2023-02-18T09:46:00.630Z,39.70
2023-02-18T09:48:29.612Z,37.03
2023-02-18T09:50:56.283Z,35.60
2023-02-18T09:53:24.101Z,42.07
2023-02-18T09:55:56.271Z,37.50
2023-02-18T09:58:29.469Z,29.07
2023-02-18T10:01:32.794Z,34.00
2023-02-18T10:04:04.090Z,34.60
2023-02-18T10:06:34.748Z,31.53
2023-02-18T10:09:23.089Z,33.30
2023-02-18T10:11:53.190Z,21.73
2023-02-18T10:14:19.933Z,10.03
2023-02-18T10:16:47.334Z,7.97
2023-02-18T10:19:40.994Z,8.50
2023-02-18T10:22:09.039Z,6.07
2023-02-18T10:24:38.563Z,5.50
2023-02-18T10:27:06.798Z,6.17
2023-02-18T10:29:33.726Z,4.00
2023-02-18T10:32:27.326Z,4.20
2023-02-18T10:34:55.377Z,3.80
2023-02-18T10:37:27.744Z,2.57
2023-02-18T10:40:14.260Z,3.90
2023-02-18T10:43:02.601Z,3.10
2023-02-18T10:45:37.212Z,2.60
2023-02-18T10:48:28.214Z,2.50
2023-02-18T10:50:55.278Z,5.00
2023-02-18T10:53:37.979Z,4.10
2023-02-18T10:56:06.539Z,3.60
2023-02-18T10:58:42.449Z,3.10
2023-02-18T11:01:17.427Z,2.73
2023-02-18T11:03:53.132Z,6.80
2023-02-18T11:06:34.274Z,5.33
2023-02-18T11:09:00.960Z,4.00
2023-02-18T11:11:33.667Z,4.00
2023-02-18T11:14:04.769Z,3.53
2023-02-18T11:16:47.285Z,3.73
2023-02-18T11:19:39.347Z,4.10
2023-02-18T11:22:19.141Z,2.10
2023-02-18T11:24:48.591Z,1.80
2023-02-18T11:27:24.885Z,2.17
2023-02-18T11:29:54.684Z,1.20
2023-02-18T11:32:21.666Z,1.27
2023-02-18T11:34:49.436Z,1.23
2023-02-18T11:37:19.962Z,2.10
2023-02-18T11:39:49.123Z,1.40
2023-02-18T11:42:18.319Z,1.00
2023-02-18T11:44:59.313Z,1.23
2023-02-18T11:47:31.382Z,1.13
2023-02-18T11:50:16.294Z,1.77
2023-02-18T11:52:47.801Z,2.77
2023-02-18T11:55:23.180Z,1.97
2023-02-18T11:57:58.980Z,1.47
2023-02-18T12:00:43.391Z,1.70
2023-02-18T12:03:19.101Z,1.77
2023-02-18T12:05:45.821Z,1.10
2023-02-18T12:08:18.140Z,1.00
2023-02-18T12:10:49.353Z,2.07
2023-02-18T12:13:29.223Z,2.37
2023-02-18T12:16:22.062Z,1.50
2023-02-18T12:18:54.524Z,1.73
2023-02-18T12:21:35.590Z,3.17
2023-02-18T12:24:14.668Z,3.57
2023-02-18T12:27:09.732Z,3.70
2023-02-18T12:29:52.624Z,2.03
2023-02-18T12:32:40.981Z,5.10
2023-02-18T12:35:39.828Z,2.00
2023-02-18T12:38:32.819Z,3.80
2023-02-18T12:41:19.235Z,2.27
2023-02-18T12:44:09.705Z,2.17
2023-02-18T12:46:48.443Z,3.13
2023-02-18T12:49:23.921Z,2.63
2023-02-18T12:52:05.520Z,2.60
2023-02-18T12:54:47.954Z,2.97
2023-02-18T12:57:36.914Z,2.87
2023-02-18T13:00:03.578Z,3.30
2023-02-18T13:02:47.881Z,2.10
2023-02-18T13:05:33.159Z,2.80
2023-02-18T13:08:36.246Z,5.60
2023-02-18T13:11:14.784Z,3.67
2023-02-18T13:13:45.341Z,2.40
2023-02-18T13:16:14.144Z,3.13
2023-02-18T13:18:43.252Z,3.27
2023-02-18T13:21:13.085Z,1.90
2023-02-18T13:23:46.321Z,2.20
2023-02-18T13:26:14.389Z,1.90
2023-02-18T13:28:55.477Z,1.63
2023-02-18T13:31:32.592Z,1.50
2023-02-18T13:34:04.775Z,1.63
2023-02-18T13:36:36.579Z,1.60
2023-02-18T13:39:04.770Z,1.50
2023-02-18T13:41:36.717Z,2.20
2023-02-18T13:44:08.381Z,1.67
2023-02-18T13:46:52.214Z,3.87
2023-02-18T13:49:22.726Z,2.33
2023-02-18T13:51:51.143Z,3.10
2023-02-18T13:54:29.922Z,3.07
2023-02-18T13:57:03.908Z,1.50
2023-02-18T13:59:35.434Z,2.07
2023-02-18T14:02:32.774Z,1.87
2023-02-18T14:05:08.519Z,1.57
2023-02-18T14:07:41.503Z,2.87
2023-02-18T14:10:17.073Z,3.37
2023-02-18T14:12:50.428Z,1.70
2023-02-18T14:15:18.003Z,1.60
2023-02-18T14:18:06.711Z,1.30
2023-02-18T14:20:45.299Z,1.57
2023-02-18T14:23:18.729Z,2.03
2023-02-18T14:26:08.965Z,5.00
2023-02-18T14:28:36.136Z,2.17
2023-02-18T14:31:06.345Z,1.83
2023-02-18T14:33:35.942Z,2.47
2023-02-18T14:36:14.673Z,1.83
2023-02-18T14:39:26.850Z,1.83
2023-02-18T14:42:25.330Z,2.07
2023-02-18T14:45:24.424Z,2.73
2023-02-18T14:48:34.186Z,2.07
2023-02-18T14:51:01.546Z,1.43
2023-02-18T14:53:28.505Z,1.40
2023-02-18T14:55:59.425Z,1.33
2023-02-18T14:58:41.646Z,1.90
2023-02-18T15:01:24.122Z,1.10
2023-02-18T15:03:52.491Z,4.13
2023-02-18T15:06:26.205Z,11.93
2023-02-18T15:08:52.910Z,5.67
2023-02-18T15:11:21.935Z,3.43
2023-02-18T15:13:48.546Z,2.83
2023-02-18T15:16:32.518Z,3.43
2023-02-18T15:19:01.120Z,1.73
2023-02-18T15:21:37.928Z,1.57
2023-02-18T15:24:10.362Z,3.23
2023-02-18T15:26:42.110Z,2.00
2023-02-18T15:29:18.603Z,1.40
2023-02-18T15:31:46.914Z,2.27
2023-02-18T15:34:25.923Z,1.90
2023-02-18T15:36:53.041Z,3.90
2023-02-18T15:39:19.566Z,2.80
2023-02-18T15:41:47.091Z,1.27
2023-02-18T15:44:21.593Z,2.43
2023-02-18T15:46:48.250Z,2.07
2023-02-18T15:49:16.453Z,1.53
2023-02-18T15:51:43.774Z,2.70
2023-02-18T15:54:19.296Z,1.53
2023-02-18T15:56:50.277Z,2.47
2023-02-18T15:59:30.531Z,3.07
2023-02-18T16:02:09.435Z,0.93
2023-02-18T16:04:41.312Z,1.43
2023-02-18T16:07:25.462Z,0.93
2023-02-18T16:10:09.936Z,3.07
2023-02-18T16:12:37.960Z,2.50
2023-02-18T16:15:05.657Z,3.40
2023-02-18T16:17:32.349Z,1.43
2023-02-18T16:20:21.922Z,1.10
2023-02-18T16:22:54.557Z,1.67
2023-02-18T16:25:21.022Z,2.60
2023-02-18T16:28:04.517Z,1.23
2023-02-18T16:30:34.560Z,1.13
2023-02-18T16:33:01.337Z,1.27
2023-02-18T16:35:32.803Z,1.93
2023-02-18T16:38:04.338Z,2.43
2023-02-18T16:40:36.658Z,1.20
2023-02-18T16:43:15.538Z,1.77
2023-02-18T16:45:45.706Z,2.60
2023-02-18T16:48:34.039Z,1.77
2023-02-18T16:51:06.143Z,1.30
2023-02-18T16:53:32.935Z,2.40
2023-02-18T16:56:00.882Z,1.63
2023-02-18T16:58:27.599Z,2.07
2023-02-18T17:00:54.503Z,1.57
2023-02-18T17:03:21.121Z,1.33
2023-02-18T17:05:47.673Z,1.37
2023-02-18T17:08:18.705Z,0.80
2023-02-18T17:10:47.346Z,1.30
2023-02-18T17:13:19.985Z,0.80
2023-02-18T17:15:48.149Z,1.07
2023-02-18T17:18:14.967Z,1.63
2023-02-18T17:20:41.550Z,1.57
2023-02-18T17:23:08.129Z,3.07
2023-02-18T17:25:39.649Z,1.33
2023-02-18T17:28:06.396Z,1.17
2023-02-18T17:30:36.281Z,1.03
2023-02-18T17:33:03.695Z,1.47
2023-02-18T17:35:30.658Z,1.73
2023-02-18T17:37:57.135Z,1.67
2023-02-18T17:40:26.897Z,1.10
2023-02-18T17:42:55.049Z,2.10
2023-02-18T17:45:32.119Z,1.43
2023-02-18T17:47:59.911Z,0.90
2023-02-18T17:50:27.559Z,1.93
2023-02-18T17:52:55.319Z,4.63
2023-02-18T17:55:23.344Z,1.70
2023-02-18T17:57:51.351Z,2.17
2023-02-18T18:00:26.770Z,1.30
2023-02-18T18:02:53.684Z,2.40
2023-02-18T18:05:23.423Z,5.17
2023-02-18T18:07:50.298Z,5.17
2023-02-18T18:10:18.361Z,2.10
2023-02-18T18:12:45.265Z,2.10
2023-02-18T18:15:34.772Z,2.37
2023-02-18T18:18:01.349Z,1.80
2023-02-18T18:20:29.415Z,2.40
2023-02-18T18:22:57.157Z,1.97
2023-02-18T18:25:25.295Z,4.57
2023-02-18T18:27:52.914Z,1.57
2023-02-18T18:30:28.293Z,3.07
2023-02-18T18:32:55.425Z,1.60
2023-02-18T18:35:35.420Z,2.23
2023-02-18T18:38:02.424Z,1.70
2023-02-18T18:40:31.661Z,3.87
2023-02-18T18:43:00.249Z,1.97
2023-02-18T18:45:32.909Z,2.23
2023-02-18T18:48:00.280Z,2.97
2023-02-18T18:50:27.881Z,2.20
2023-02-18T18:52:54.576Z,2.70
2023-02-18T18:55:34.536Z,3.20
2023-02-18T18:58:01.398Z,2.80
2023-02-18T19:00:29.659Z,2.30
2023-02-18T19:02:56.446Z,2.03
2023-02-18T19:05:29.823Z,2.10
2023-02-18T19:07:58.331Z,2.97
2023-02-18T19:10:27.987Z,2.63
2023-02-18T19:12:56.061Z,2.77
2023-02-18T19:15:23.332Z,4.00
2023-02-18T19:17:52.435Z,2.33
2023-02-18T19:20:22.269Z,2.90
2023-02-18T19:22:49.059Z,2.93
2023-02-18T19:25:16.003Z,2.97
2023-02-18T19:27:43.971Z,4.03
2023-02-18T19:30:17.861Z,2.47
2023-02-18T19:32:45.678Z,3.57
2023-02-18T19:35:12.440Z,4.17
2023-02-18T19:37:39.012Z,2.47
2023-02-18T19:40:08.073Z,2.50
2023-02-18T19:42:34.581Z,1.90
2023-02-18T19:45:01.425Z,4.53
2023-02-18T19:47:28.528Z,1.80
2023-02-18T19:49:55.334Z,3.23
2023-02-18T19:52:22.115Z,2.93
2023-02-18T19:54:48.552Z,3.43
2023-02-18T19:57:15.080Z,1.73
2023-02-18T19:59:41.678Z,2.33
2023-02-18T20:02:13.015Z,2.77
2023-02-18T20:04:39.638Z,5.10
2023-02-18T20:07:06.314Z,3.20
2023-02-18T20:09:32.877Z,2.27
2023-02-18T20:11:59.479Z,2.17
2023-02-18T20:14:27.172Z,2.97
2023-02-18T20:16:54.019Z,3.27
2023-02-18T20:19:20.707Z,2.73
2023-02-18T20:21:47.169Z,3.37
2023-02-18T20:24:13.909Z,7.47
2023-02-18T20:26:40.477Z,2.83
2023-02-18T20:29:06.953Z,2.30
2023-02-18T20:31:33.752Z,2.27
2023-02-18T20:34:00.423Z,3.20
2023-02-18T20:36:27.930Z,3.90
2023-02-18T20:38:54.396Z,2.60
2023-02-18T20:41:21.920Z,3.70
2023-02-18T20:43:48.505Z,2.43
2023-02-18T20:46:17.417Z,5.00
2023-02-18T20:48:44.243Z,2.90
2023-02-18T20:51:13.525Z,2.43
2023-02-18T20:53:41.636Z,2.73
2023-02-18T20:56:08.557Z,3.67
2023-02-18T20:58:35.808Z,2.90
2023-02-18T21:01:08.964Z,2.63
2023-02-18T21:03:36.321Z,2.30
2023-02-18T21:06:06.026Z,4.47
2023-02-18T21:08:33.186Z,2.87
2023-02-18T21:11:05.290Z,3.07
2023-02-18T21:13:32.514Z,2.90
2023-02-18T21:15:59.209Z,4.10
2023-02-18T21:18:26.088Z,3.43
2023-02-18T21:20:52.749Z,4.87
2023-02-18T21:23:19.377Z,3.20
2023-02-18T21:25:45.975Z,4.07
2023-02-18T21:28:12.435Z,2.80
2023-02-18T21:30:42.608Z,3.13
2023-02-18T21:33:11.426Z,3.97
2023-02-18T21:35:45.165Z,3.60
2023-02-18T21:38:45.434Z,6.27
2023-02-18T21:41:12.934Z,3.57
2023-02-18T21:43:39.590Z,3.10
2023-02-18T21:46:17.348Z,3.57
2023-02-18T21:49:02.120Z,3.33
2023-02-18T21:51:49.208Z,4.60
2023-02-18T21:54:17.062Z,4.57
2023-02-18T21:56:43.547Z,4.97
2023-02-18T21:59:10.106Z,4.50
2023-02-18T22:01:36.645Z,6.43
2023-02-18T22:04:03.473Z,6.40
2023-02-18T22:06:30.352Z,3.93
2023-02-18T22:09:00.237Z,5.17
2023-02-18T22:11:27.329Z,5.30
2023-02-18T22:13:53.810Z,4.40
2023-02-18T22:16:20.539Z,4.30
2023-02-18T22:18:46.990Z,5.37
2023-02-18T22:21:13.504Z,5.10
2023-02-18T22:23:40.049Z,7.93
2023-02-18T22:26:08.452Z,5.37
2023-02-18T22:28:35.635Z,5.53
2023-02-18T22:31:10.044Z,5.07
2023-02-18T22:33:36.934Z,5.17
2023-02-18T22:36:07.195Z,6.03
2023-02-18T22:38:38.201Z,7.63
2023-02-18T22:41:07.226Z,6.67
2023-02-18T22:43:34.094Z,6.93
2023-02-18T22:46:04.703Z,6.93
2023-02-18T22:48:32.737Z,7.17
2023-02-18T22:51:07.025Z,6.00
2023-02-18T22:53:34.034Z,9.03
2023-02-18T22:56:05.767Z,6.90
2023-02-18T22:58:32.406Z,7.17
2023-02-18T23:00:58.952Z,8.77
2023-02-18T23:03:28.987Z,10.30
2023-02-18T23:05:56.178Z,9.73
2023-02-18T23:08:22.663Z,7.53
2023-02-18T23:11:02.743Z,7.40
2023-02-18T23:13:29.920Z,6.90
2023-02-18T23:16:01.151Z,7.47
2023-02-18T23:18:28.336Z,10.23
2023-02-18T23:21:18.524Z,11.13
2023-02-18T23:23:46.116Z,8.83
2023-02-18T23:26:13.410Z,9.33
2023-02-18T23:28:49.199Z,8.50
2023-02-18T23:31:21.870Z,11.43
2023-02-18T23:33:50.411Z,10.27
2023-02-18T23:36:19.167Z,12.60
2023-02-18T23:38:53.334Z,12.37
2023-02-18T23:41:20.435Z,10.33
2023-02-18T23:43:47.475Z,12.17
2023-02-18T23:46:15.028Z,10.33
2023-02-18T23:48:41.545Z,8.47
2023-02-18T23:51:09.613Z,11.23
2023-02-18T23:53:37.035Z,9.77
2023-02-18T23:56:14.769Z,10.90
2023-02-18T23:58:43.093Z,9.73
